Kezdőlap
METAR-TAF:

METAR-TAF

Repülőterek :

Alor Setar, Malajzia

földrajzi szélesség: 06-11-40N, földrajzi hosszúság: 100-24-03E, magasság: 5 m

Jelenlegi meteorológiai megfigyelések

A jelentés 30 perccel ezelõtt készült, 15:00 UTC
Szélcsend
Hőmérséklet 28°C
Páratartalom 89%
Légköri nyomás 1009 hPa
Látótávolság 10 km, vagy több
Kevés felhő 3000 lábon

METAR: WMKA 231500Z 00000KT 9999 FEW030 28/26 Q1009

Idő: 23:30 (15:30 UTC)

Előrejelzés

A jelentés 4 órával és 30 perccel ezelõtt készült, 11:00 UTC
Az előrejelzés 23-én 12 óra UTC és 24-én 12 óra UTC között érvényes
Különbözõ irányokból fújó szél 3 kt
Látótávolság 10 km, vagy több
Kevés felhő 2800 lábon

TAF: WMKA 231100Z 2312/2412 VRB03KT 9999 FEW028

Meteorológiai megfigyelések és előrejelzések több, mint 4000 repülőtéren (METAR és TAF jelentéseket).

A térképen piros és sárga pontok jelzik az elérhető meteorológiai állomásokat.

Mozgassa az egeret a pont fölött, hogy megjelenjen az állomás neve.

Azután kattintson az időjárási megfigyelések és előrejelzések megtekintéséhez.

A térkép megváltoztatása: kattintson a fekete keresztel jelölt zöld gombra ráközelítéshez, a vonallal jelölt zöld gombra távolításhoz, vagy a zöld nyilakra a szomszédos térképek eléréséhez.


METAR-TAF: